createdAt,value
2022-11-25T00:02:47.623Z,7
2022-11-25T00:08:42.169Z,7.1
2022-11-25T00:14:38.095Z,7.1
2022-11-25T00:20:28.912Z,7.1
2022-11-25T00:26:17.510Z,7.1
2022-11-25T00:32:08.558Z,7.1
2022-11-25T00:38:02.395Z,7.2
2022-11-25T00:43:52.789Z,7.2
2022-11-25T00:49:45.266Z,7.2
2022-11-25T00:55:36.700Z,7.3
2022-11-25T01:01:29.050Z,7.4
2022-11-25T01:07:20.726Z,7.4
2022-11-25T01:13:11.472Z,7.5
2022-11-25T01:19:03.728Z,7.5
2022-11-25T01:24:54.395Z,7.5
2022-11-25T01:30:46.292Z,7.6
2022-11-25T01:36:37.123Z,7.6
2022-11-25T01:42:29.015Z,7.6
2022-11-25T01:48:19.550Z,7.6
2022-11-25T01:54:10.414Z,7.7
2022-11-25T02:00:02.054Z,7.7
2022-11-25T02:05:52.992Z,7.7
2022-11-25T02:11:44.995Z,7.8
2022-11-25T02:17:36.801Z,7.8
2022-11-25T02:23:30.239Z,7.8
2022-11-25T02:29:21.809Z,7.9
2022-11-25T02:35:12.694Z,7.9
2022-11-25T02:41:04.792Z,8
2022-11-25T02:46:56.697Z,7.9
2022-11-25T02:52:50.191Z,7.9
2022-11-25T02:58:39.976Z,7.8
2022-11-25T03:04:32.135Z,7.8
2022-11-25T03:10:25.741Z,7.8
2022-11-25T03:16:18.622Z,7.7
2022-11-25T03:22:14.317Z,7.7
2022-11-25T03:28:09.747Z,7.7
2022-11-25T03:34:01.822Z,7.7
2022-11-25T03:39:51.226Z,7.7
2022-11-25T03:45:42.808Z,7.8
2022-11-25T03:51:35.106Z,7.8
2022-11-25T03:57:29.134Z,7.8
2022-11-25T04:03:19.952Z,7.7
2022-11-25T04:09:12.023Z,7.8
2022-11-25T04:15:02.874Z,7.8
2022-11-25T04:20:54.378Z,7.8
2022-11-25T04:26:45.311Z,7.8
2022-11-25T04:32:37.309Z,7.8
2022-11-25T04:38:29.662Z,7.8
2022-11-25T04:44:20.860Z,7.8
2022-11-25T04:50:12.850Z,7.9
2022-11-25T04:56:04.982Z,7.9
2022-11-25T05:01:57.682Z,7.9
2022-11-25T05:07:49.252Z,7.9
2022-11-25T05:13:41.348Z,7.9
2022-11-25T05:19:33.357Z,7.9
2022-11-25T05:25:23.650Z,8
2022-11-25T05:31:14.041Z,7.9
2022-11-25T05:37:05.650Z,8
2022-11-25T05:42:57.140Z,8
2022-11-25T05:48:48.396Z,8
2022-11-25T05:54:44.141Z,8
2022-11-25T06:00:43.219Z,8.1
2022-11-25T06:06:34.273Z,8
2022-11-25T06:12:25.070Z,7.9
2022-11-25T06:18:13.394Z,7.9
2022-11-25T06:24:05.979Z,7.9
2022-11-25T06:30:01.596Z,7.9
2022-11-25T06:35:53.759Z,7.9
2022-11-25T06:41:45.874Z,7.9
2022-11-25T06:47:37.495Z,7.9
2022-11-25T06:53:30.721Z,7.9
2022-11-25T06:59:22.137Z,7.9
2022-11-25T07:05:13.885Z,8
2022-11-25T07:11:03.380Z,8
2022-11-25T07:16:52.929Z,8
2022-11-25T07:22:44.610Z,8
2022-11-25T07:28:36.938Z,8
2022-11-25T07:34:28.130Z,8
2022-11-25T07:40:20.057Z,7.9
2022-11-25T07:46:12.042Z,7.9
2022-11-25T07:52:12.078Z,7.8
2022-11-25T07:58:03.625Z,7.9
2022-11-25T08:03:56.870Z,7.9
2022-11-25T08:09:47.315Z,8
2022-11-25T08:15:39.846Z,7.9
2022-11-25T08:21:31.318Z,7.9
2022-11-25T08:27:22.624Z,7.9
2022-11-25T08:33:14.006Z,7.9
2022-11-25T08:39:17.281Z,8
2022-11-25T08:45:46.918Z,8.1
2022-11-25T08:51:38.158Z,8.2
2022-11-25T08:57:29.313Z,8.2
2022-11-25T09:03:20.202Z,8.3
2022-11-25T09:09:15.703Z,8.4
2022-11-25T09:15:07.132Z,8.4
2022-11-25T09:20:59.561Z,8.5
2022-11-25T09:26:50.363Z,8.5
2022-11-25T09:32:42.678Z,8.6
2022-11-25T09:39:42.854Z,8.8
2022-11-25T09:45:33.751Z,8.9
2022-11-25T09:51:24.950Z,9
2022-11-25T09:57:16.283Z,9.1
2022-11-25T10:04:13.069Z,9.2
2022-11-25T10:10:06.446Z,9.3
2022-11-25T10:15:57.264Z,9.4
2022-11-25T10:21:48.692Z,9.6
2022-11-25T10:27:39.899Z,9.7
2022-11-25T10:33:31.166Z,9.9
2022-11-25T10:39:22.432Z,9.9
2022-11-25T10:45:13.471Z,10.1
2022-11-25T10:51:05.797Z,10.2
2022-11-25T10:56:57.834Z,10.3
2022-11-25T11:02:48.933Z,10.4
2022-11-25T11:08:47.002Z,10.4
2022-11-25T11:14:36.165Z,10.6
2022-11-25T11:20:28.714Z,10.8
2022-11-25T11:26:19.945Z,10.8
2022-11-25T11:32:11.812Z,10.9
2022-11-25T11:38:01.791Z,11
2022-11-25T11:43:56.436Z,11
2022-11-25T11:49:47.797Z,10.9
2022-11-25T11:55:38.325Z,11
2022-11-25T12:01:32.256Z,11
2022-11-25T12:07:26.341Z,11
2022-11-25T12:13:17.112Z,11.2
2022-11-25T12:19:07.438Z,11.2
2022-11-25T12:24:57.798Z,11.3
2022-11-25T12:30:47.948Z,11.4
2022-11-25T12:36:38.814Z,11.5
2022-11-25T12:42:30.374Z,11.5
2022-11-25T12:48:21.922Z,11.5
2022-11-25T12:54:14.184Z,11.5
2022-11-25T13:00:33.219Z,11.4
2022-11-25T13:06:30.676Z,11.5
2022-11-25T13:12:22.026Z,11.6
2022-11-25T13:18:14.606Z,11.5
2022-11-25T13:24:04.643Z,11.5
2022-11-25T13:29:54.055Z,11.6
2022-11-25T13:35:43.327Z,11.5
2022-11-25T13:41:33.121Z,11.5
2022-11-25T13:47:24.167Z,11.6
2022-11-25T13:53:16.476Z,11.6
2022-11-25T13:59:08.535Z,11.6
2022-11-25T14:05:00.004Z,11.7
2022-11-25T14:10:50.816Z,11.6
2022-11-25T14:16:41.009Z,11.6
2022-11-25T14:22:32.442Z,11.6
2022-11-25T14:28:23.390Z,11.5
2022-11-25T14:34:14.440Z,11.5
2022-11-25T14:40:05.429Z,11.5
2022-11-25T14:45:55.815Z,11.4
2022-11-25T14:51:48.198Z,11.4
2022-11-25T14:57:40.624Z,11.3
2022-11-25T15:03:32.927Z,11.3
2022-11-25T15:15:33.847Z,11
2022-11-25T15:21:30.461Z,11
2022-11-25T15:28:09.028Z,10.9
2022-11-25T15:34:01.724Z,10.7
2022-11-25T15:39:56.137Z,10.7
2022-11-25T15:45:48.254Z,10.5
2022-11-25T15:51:40.222Z,10.3
2022-11-25T15:57:41.956Z,10.3
2022-11-25T16:03:44.255Z,10.1
2022-11-25T16:09:39.983Z,9.9
2022-11-25T16:15:35.548Z,9.9
2022-11-25T16:21:29.798Z,9.8
2022-11-25T16:28:38.235Z,9.7
2022-11-25T16:34:30.050Z,9.8
2022-11-25T16:40:22.540Z,9.7
2022-11-25T16:46:24.365Z,9.6
2022-11-25T17:05:03.438Z,9.6
2022-11-25T17:10:52.146Z,9.6
2022-11-25T17:16:49.808Z,9.6
2022-11-25T17:22:41.782Z,9.5
2022-11-25T17:29:42.084Z,9.5
2022-11-25T17:35:32.582Z,9.1
2022-11-25T17:41:23.609Z,9.5
2022-11-25T17:47:16.470Z,9.4
2022-11-25T17:53:08.110Z,9.4
2022-11-25T17:58:59.466Z,9.6
2022-11-25T18:04:52.341Z,9.4
2022-11-25T18:10:42.278Z,9.2
2022-11-25T18:16:34.248Z,9.4
2022-11-25T18:22:25.042Z,9.4
2022-11-25T18:28:17.042Z,9.3
2022-11-25T18:34:07.654Z,9.4
2022-11-25T18:39:58.448Z,9.2
2022-11-25T18:45:50.507Z,9.3
2022-11-25T18:51:42.700Z,9.3
2022-11-25T18:57:33.378Z,9.3
2022-11-25T19:03:23.854Z,9.3
2022-11-25T19:09:14.926Z,9.4
2022-11-25T19:15:06.010Z,9.3
2022-11-25T19:20:57.250Z,9.3
2022-11-25T19:26:48.526Z,9.3
2022-11-25T19:32:42.684Z,9.3
2022-11-25T19:38:33.775Z,9.2
2022-11-25T19:44:24.374Z,9.2
2022-11-25T19:50:15.476Z,9.3
2022-11-25T19:56:08.533Z,9.1
2022-11-25T20:02:01.336Z,9.1
2022-11-25T20:07:53.595Z,9.1
2022-11-25T20:13:45.019Z,9
2022-11-25T20:19:37.234Z,8.8
2022-11-25T20:25:27.286Z,8.6
2022-11-25T20:31:18.786Z,8.9
2022-11-25T20:37:16.441Z,8.7
2022-11-25T20:43:15.983Z,8.7
2022-11-25T20:49:06.324Z,8.4
2022-11-25T20:54:57.192Z,8.3
2022-11-25T21:00:49.816Z,8.4
2022-11-25T21:06:46.377Z,8.1
2022-11-25T21:12:36.536Z,8
2022-11-25T21:18:27.985Z,7.4
2022-11-25T21:24:20.823Z,7.7
2022-11-25T21:30:11.271Z,7.6
2022-11-25T21:36:03.224Z,7.6
2022-11-25T21:41:55.176Z,7.2
2022-11-25T21:47:46.261Z,7.4
2022-11-25T21:53:38.570Z,7.3
2022-11-25T21:59:30.353Z,7.2
2022-11-25T22:05:21.641Z,7.2
2022-11-25T22:11:16.899Z,7.1
2022-11-25T22:17:10.889Z,7
2022-11-25T22:23:04.537Z,6.9
2022-11-25T22:28:55.390Z,6.8
2022-11-25T22:34:47.774Z,6.7
2022-11-25T22:40:39.468Z,6.8
2022-11-25T22:46:29.596Z,6.5
2022-11-25T22:52:21.574Z,6.6
2022-11-25T22:58:13.748Z,6.3
2022-11-25T23:04:05.882Z,6.3
2022-11-25T23:09:58.585Z,6.3
2022-11-25T23:15:48.914Z,6.4
2022-11-25T23:21:39.756Z,6.2
2022-11-25T23:27:32.918Z,6.1
2022-11-25T23:33:31.945Z,5.8
2022-11-25T23:39:30.233Z,5.9
2022-11-25T23:51:44.963Z,5.7
